Time;durP1;ratioP1;P1;durP2;ratioP2;P2;SDS_P1;SDS_P2;PMS_P1;PMS_P2;Temp;Humidity;BMP_temperature;BMP_pressure;BME280_temperature;BME280_humidity;BME280_pressure;Samples;Min_cycle;Max_cycle;Signal;HPM_P1;HPM_P2
2023/06/01 00:00:33;;;;;;;14.57;9.35;;;19.80;99.90;;;;;;6305534;22;20027;-60
2023/06/01 00:02:58;;;;;;;15.85;9.73;;;19.50;99.90;;;;;;6305901;22;20070;-62
2023/06/01 00:05:24;;;;;;;11.68;9.15;;;19.50;99.90;;;;;;6305633;22;20333;-62
2023/06/01 00:07:50;;;;;;;15.82;10.00;;;19.50;99.90;;;;;;6305534;22;20033;-61
2023/06/01 00:10:16;;;;;;;15.48;10.10;;;19.50;99.90;;;;;;6305421;22;20071;-62
2023/06/01 00:12:43;;;;;;;15.98;9.88;;;19.50;99.90;;;;;;6305455;22;20078;-61
2023/06/01 00:15:09;;;;;;;17.33;9.60;;;19.50;99.90;;;;;;6305744;22;20019;-62
2023/06/01 00:17:35;;;;;;;15.68;10.13;;;19.50;99.90;;;;;;6305541;22;20003;-62
2023/06/01 00:20:01;;;;;;;14.90;9.55;;;19.50;99.90;;;;;;6278692;22;20129;-62
2023/06/01 00:22:34;;;;;;;14.25;9.77;;;19.50;99.90;;;;;;6306942;22;20015;-62
2023/06/01 00:25:00;;;;;;;13.00;9.03;;;19.60;99.90;;;;;;6307110;22;20003;-63
2023/06/01 00:27:25;;;;;;;15.23;9.85;;;19.70;99.90;;;;;;6307745;22;20010;-62
2023/06/01 00:29:51;;;;;;;14.27;9.07;;;19.80;99.90;;;;;;6307212;22;20338;-60
2023/06/01 00:32:17;;;;;;;13.73;9.05;;;19.80;99.90;;;;;;6307408;22;20410;-62
2023/06/01 00:34:42;;;;;;;15.52;9.98;;;19.80;99.90;;;;;;6307216;22;20452;-62
2023/06/01 00:37:08;;;;;;;14.93;9.82;;;19.70;99.90;;;;;;6307527;22;20065;-62
2023/06/01 00:39:34;;;;;;;11.48;8.60;;;19.60;99.90;;;;;;6306779;22;20006;-62
2023/06/01 00:42:00;;;;;;;13.95;9.30;;;19.70;99.90;;;;;;6307533;22;20011;-62
2023/06/01 00:44:25;;;;;;;12.25;8.75;;;19.70;99.90;;;;;;6307244;22;20000;-62
2023/06/01 00:46:52;;;;;;;12.93;9.25;;;19.60;99.90;;;;;;6307186;22;20033;-62
2023/06/01 00:49:18;;;;;;;13.10;9.20;;;19.70;99.90;;;;;;6307623;22;20007;-63
2023/06/01 00:51:44;;;;;;;16.92;9.68;;;19.70;99.90;;;;;;6307520;22;20003;-62
2023/06/01 00:54:11;;;;;;;14.82;9.07;;;19.70;99.90;;;;;;6306757;22;20014;-62
2023/06/01 00:56:37;;;;;;;14.65;9.20;;;19.60;99.90;;;;;;6307361;22;20018;-61
2023/06/01 00:59:03;;;;;;;15.48;9.13;;;19.70;99.90;;;;;;6307123;22;19999;-62
2023/06/01 01:01:29;;;;;;;14.45;9.25;;;19.70;99.90;;;;;;6307069;22;20010;-62
2023/06/01 01:03:57;;;;;;;13.95;9.63;;;19.70;99.90;;;;;;6307173;22;20447;-61
2023/06/01 01:06:34;;;;;;;16.50;9.43;;;19.70;99.90;;;;;;6307401;22;20303;-62
2023/06/01 01:09:28;;;;;;;16.45;9.02;;;19.70;99.90;;;;;;6306573;22;20010;-62
2023/06/01 01:12:00;;;;;;;17.30;9.15;;;19.60;99.90;;;;;;6307173;22;20019;-61
2023/06/01 01:14:35;;;;;;;14.80;9.33;;;19.60;99.90;;;;;;6306992;22;20480;-62
2023/06/01 01:17:15;;;;;;;14.90;9.35;;;19.50;99.90;;;;;;6306875;22;20003;-62
2023/06/01 01:20:00;;;;;;;11.85;8.98;;;19.50;99.90;;;;;;6306875;22;20048;-62
2023/06/01 01:22:45;;;;;;;16.80;9.90;;;19.50;99.90;;;;;;6306511;22;20006;-62
2023/06/01 01:25:52;;;;;;;15.70;9.95;;;19.60;99.90;;;;;;6307185;22;20350;-62
2023/06/01 01:28:49;;;;;;;17.38;9.45;;;19.50;99.90;;;;;;6306736;22;20023;-62
2023/06/01 01:31:18;;;;;;;15.05;8.95;;;19.50;99.90;;;;;;6306739;22;20030;-61
2023/06/01 01:33:47;;;;;;;16.13;8.68;;;19.50;99.90;;;;;;6306729;22;20799;-62
2023/06/01 01:36:13;;;;;;;13.20;9.48;;;19.50;99.90;;;;;;6306497;22;20087;-61
2023/06/01 01:38:39;;;;;;;12.77;9.55;;;19.50;99.90;;;;;;6306374;22;20072;-62
2023/06/01 01:41:05;;;;;;;16.60;10.10;;;19.40;99.90;;;;;;6306615;22;20079;-62
2023/06/01 01:43:32;;;;;;;14.95;10.25;;;19.40;99.90;;;;;;6306669;22;20084;-62
2023/06/01 01:46:11;;;;;;;15.80;9.75;;;19.40;99.90;;;;;;6306625;22;20105;-62
2023/06/01 01:48:50;;;;;;;15.25;10.15;;;19.30;99.90;;;;;;6306677;22;19999;-62
2023/06/01 01:51:21;;;;;;;12.95;9.75;;;19.30;99.90;;;;;;6306864;22;20014;-62
2023/06/01 01:53:51;;;;;;;20.35;10.75;;;19.30;99.90;;;;;;6306337;22;20053;-62
2023/06/01 01:56:18;;;;;;;14.13;9.52;;;19.30;99.90;;;;;;6306493;22;20476;-60
2023/06/01 01:58:47;;;;;;;16.20;10.40;;;19.30;99.90;;;;;;6306358;22;20503;-62
2023/06/01 02:01:13;;;;;;;15.25;9.93;;;19.30;99.90;;;;;;6306460;22;20010;-62
2023/06/01 02:03:39;;;;;;;14.02;10.10;;;19.30;99.90;;;;;;6306474;22;20018;-62
2023/06/01 02:06:05;;;;;;;16.50;10.15;;;19.30;99.90;;;;;;6306452;22;19999;-62
2023/06/01 02:08:31;;;;;;;18.05;10.18;;;19.30;99.90;;;;;;6279125;22;20022;-61
2023/06/01 02:10:56;;;;;;;15.15;10.57;;;19.30;99.90;;;;;;6306473;22;19999;-62
2023/06/01 02:13:22;;;;;;;16.70;10.00;;;19.40;99.90;;;;;;6306904;22;20003;-61
2023/06/01 02:15:48;;;;;;;17.83;9.98;;;19.40;99.90;;;;;;6278883;22;20490;-62
2023/06/01 02:18:15;;;;;;;14.52;9.65;;;19.40;99.90;;;;;;6306695;22;20003;-62
2023/06/01 02:20:41;;;;;;;15.52;10.05;;;19.40;99.90;;;;;;6305983;22;20009;-62
2023/06/01 02:23:07;;;;;;;16.88;10.15;;;19.40;99.90;;;;;;6306395;22;20074;-62
2023/06/01 02:25:32;;;;;;;16.45;9.43;;;19.40;99.90;;;;;;6306715;22;20441;-61
2023/06/01 02:27:58;;;;;;;14.45;9.57;;;19.40;99.90;;;;;;6306532;22;20023;-62
2023/06/01 02:30:24;;;;;;;15.68;9.85;;;19.40;99.90;;;;;;6306159;22;20346;-63
2023/06/01 02:32:50;;;;;;;14.07;10.10;;;19.40;99.90;;;;;;6279242;22;20330;-63
2023/06/01 02:35:15;;;;;;;14.73;10.27;;;19.40;99.90;;;;;;6305633;22;20003;-62
2023/06/01 02:37:41;;;;;;;12.57;9.90;;;19.40;99.90;;;;;;6306138;22;20101;-62
2023/06/01 02:40:11;;;;;;;13.70;10.77;;;19.40;99.90;;;;;;6306123;22;20035;-61
2023/06/01 02:42:38;;;;;;;17.60;10.52;;;19.40;99.90;;;;;;6306482;22;20341;-62
2023/06/01 02:45:05;;;;;;;13.80;10.43;;;19.30;99.90;;;;;;6305917;22;20082;-62
2023/06/01 02:47:31;;;;;;;16.45;11.15;;;19.30;99.90;;;;;;6278651;22;19999;-63
2023/06/01 02:49:57;;;;;;;16.80;11.13;;;19.30;99.90;;;;;;6278778;22;20078;-62
2023/06/01 02:52:22;;;;;;;15.20;10.50;;;19.30;99.90;;;;;;6306047;22;20007;-62
2023/06/01 02:54:48;;;;;;;12.80;10.45;;;19.30;99.90;;;;;;6305960;22;20003;-62
2023/06/01 02:57:14;;;;;;;14.32;10.77;;;19.30;99.90;;;;;;6305997;22;20068;-62
2023/06/01 02:59:40;;;;;;;18.27;10.75;;;19.30;99.90;;;;;;6306034;22;20023;-62
2023/06/01 03:02:06;;;;;;;14.95;10.60;;;19.30;99.90;;;;;;6306679;22;20003;-62
2023/06/01 03:04:32;;;;;;;17.45;10.75;;;19.30;99.90;;;;;;6305438;22;20426;-62
2023/06/01 03:06:59;;;;;;;13.90;10.60;;;19.30;99.90;;;;;;6305878;22;20052;-62
2023/06/01 03:09:24;;;;;;;16.58;10.43;;;19.30;99.90;;;;;;6306228;22;20003;-62
2023/06/01 03:11:50;;;;;;;17.73;10.77;;;19.20;99.90;;;;;;6305803;22;20037;-62
2023/06/01 03:14:16;;;;;;;16.20;10.20;;;19.20;99.90;;;;;;6305847;22;20004;-62
2023/06/01 03:16:42;;;;;;;15.57;9.98;;;19.30;99.90;;;;;;6306104;22;20043;-61
2023/06/01 03:19:07;;;;;;;14.68;10.02;;;19.30;99.90;;;;;;6305409;22;20448;-61
2023/06/01 03:21:33;;;;;;;15.25;9.77;;;19.30;99.90;;;;;;6305783;22;20005;-61
2023/06/01 03:23:59;;;;;;;18.17;11.00;;;19.30;99.90;;;;;;6306111;22;20346;-62
2023/06/01 03:26:25;;;;;;;17.50;10.35;;;19.30;99.90;;;;;;6305706;22;19999;-62
2023/06/01 03:28:51;;;;;;;14.25;10.43;;;19.30;99.90;;;;;;6305738;22;20025;-63
2023/06/01 03:31:16;;;;;;;17.65;11.07;;;19.30;99.90;;;;;;6305523;22;20023;-62
2023/06/01 03:33:42;;;;;;;14.93;10.45;;;19.30;99.90;;;;;;6305298;22;19996;-62
2023/06/01 03:36:08;;;;;;;13.52;10.00;;;19.20;99.90;;;;;;6305707;22;20006;-62
2023/06/01 03:38:34;;;;;;;15.02;10.07;;;19.30;99.90;;;;;;6305768;22;19999;-62
2023/06/01 03:41:00;;;;;;;16.05;10.32;;;19.20;99.90;;;;;;6305580;22;20003;-62
2023/06/01 03:43:26;;;;;;;16.40;10.63;;;19.20;99.90;;;;;;6306059;22;20504;-62
2023/06/01 03:45:52;;;;;;;13.93;10.20;;;19.20;99.90;;;;;;6305714;22;20004;-62
2023/06/01 03:48:18;;;;;;;19.20;10.25;;;19.20;99.90;;;;;;6305544;22;20069;-62
2023/06/01 03:50:44;;;;;;;13.75;9.63;;;19.30;99.90;;;;;;6305888;22;20030;-61
2023/06/01 03:53:10;;;;;;;17.40;10.20;;;19.20;99.90;;;;;;6305965;22;20082;-61
2023/06/01 03:55:36;;;;;;;14.88;10.40;;;19.20;99.90;;;;;;6305504;22;20735;-62
2023/06/01 03:58:02;;;;;;;14.55;10.38;;;19.30;99.90;;;;;;6307612;22;20345;-62
2023/06/01 04:00:28;;;;;;;17.38;10.38;;;19.30;99.90;;;;;;6307754;22;20045;-60
2023/06/01 04:02:57;;;;;;;13.52;9.70;;;19.20;99.90;;;;;;6307540;22;20004;-62
2023/06/01 04:05:25;;;;;;;13.65;9.55;;;19.20;99.90;;;;;;6307662;22;19999;-62
2023/06/01 04:07:52;;;;;;;13.75;9.70;;;19.30;99.90;;;;;;6307690;22;20010;-62
2023/06/01 04:10:19;;;;;;;16.58;10.25;;;19.30;99.90;;;;;;6307653;22;20456;-63
2023/06/01 04:12:46;;;;;;;17.48;10.57;;;19.20;99.90;;;;;;6307799;22;20006;-61
2023/06/01 04:15:14;;;;;;;16.35;10.35;;;19.20;99.90;;;;;;6307442;22;20349;-62
2023/06/01 04:17:41;;;;;;;13.38;9.70;;;19.20;99.90;;;;;;6307099;22;20003;-61
2023/06/01 04:20:10;;;;;;;13.90;9.98;;;19.20;99.90;;;;;;6307584;22;20003;-60
2023/06/01 04:22:37;;;;;;;13.68;10.27;;;19.20;99.90;;;;;;6307864;22;20027;-62
2023/06/01 04:25:08;;;;;;;13.43;9.77;;;19.20;99.90;;;;;;6307514;22;20383;-62
2023/06/01 04:27:36;;;;;;;14.00;9.80;;;19.20;99.90;;;;;;6307335;22;20003;-62
2023/06/01 04:30:07;;;;;;;14.75;10.07;;;19.20;99.90;;;;;;6280617;22;20023;-62
2023/06/01 04:32:39;;;;;;;14.00;9.68;;;19.20;99.90;;;;;;6307364;22;20091;-61
2023/06/01 04:35:06;;;;;;;13.52;9.77;;;19.20;99.90;;;;;;6307527;22;20038;-62
2023/06/01 04:37:36;;;;;;;16.63;10.15;;;19.20;99.90;;;;;;6307238;22;20003;-62
2023/06/01 04:40:12;;;;;;;14.55;10.38;;;19.20;99.90;;;;;;6307287;22;20399;-62
2023/06/01 04:42:41;;;;;;;13.15;10.15;;;19.20;99.90;;;;;;6307630;22;20319;-62
2023/06/01 04:45:07;;;;;;;13.57;9.40;;;19.20;99.90;;;;;;6307600;22;20007;-62
2023/06/01 04:47:37;;;;;;;16.65;10.43;;;19.20;99.90;;;;;;6307236;22;20003;-62
2023/06/01 04:50:10;;;;;;;15.48;9.85;;;19.20;99.90;;;;;;6307492;22;20003;-62
2023/06/01 04:52:37;;;;;;;17.38;9.93;;;19.10;99.90;;;;;;6307211;22;20014;-61
2023/06/01 04:55:04;;;;;;;12.82;9.73;;;19.10;99.90;;;;;;6307353;22;20098;-61
2023/06/01 04:57:31;;;;;;;14.93;9.63;;;19.10;99.90;;;;;;6307619;22;20007;-62
2023/06/01 04:59:56;;;;;;;18.55;9.82;;;19.20;99.90;;;;;;6306790;22;19999;-62
2023/06/01 05:02:24;;;;;;;15.00;9.68;;;19.20;99.90;;;;;;6307394;22;20089;-62
2023/06/01 05:04:50;;;;;;;15.23;9.55;;;19.20;99.90;;;;;;6307496;22;20449;-61
2023/06/01 05:07:16;;;;;;;14.10;9.52;;;19.10;99.90;;;;;;6306835;22;20000;-62
2023/06/01 05:09:42;;;;;;;14.40;10.45;;;19.10;99.90;;;;;;6307147;22;20007;-62
2023/06/01 05:12:07;;;;;;;13.98;9.65;;;19.10;99.90;;;;;;6307071;22;20469;-61
2023/06/01 05:14:34;;;;;;;12.77;9.77;;;19.20;99.90;;;;;;6306599;22;20004;-62
2023/06/01 05:17:00;;;;;;;13.15;9.10;;;19.10;99.90;;;;;;6306914;22;20049;-62
2023/06/01 05:19:26;;;;;;;16.92;9.82;;;19.10;99.90;;;;;;6306942;22;20003;-62
2023/06/01 05:21:51;;;;;;;14.70;9.98;;;19.10;99.90;;;;;;6306931;22;20003;-62
2023/06/01 05:24:18;;;;;;;15.38;9.88;;;19.20;99.90;;;;;;6307253;22;20023;-61
2023/06/01 05:26:43;;;;;;;13.95;10.43;;;19.10;99.90;;;;;;6307057;22;20000;-61
2023/06/01 05:29:09;;;;;;;14.63;9.70;;;19.10;99.90;;;;;;6306726;22;20449;-60
2023/06/01 05:31:36;;;;;;;17.92;10.68;;;19.10;99.90;;;;;;6306805;22;20014;-62
2023/06/01 05:34:02;;;;;;;13.63;9.52;;;19.10;99.90;;;;;;6306735;22;20037;-62
2023/06/01 05:36:27;;;;;;;14.68;9.52;;;19.10;99.90;;;;;;6306768;22;20007;-62
2023/06/01 05:38:53;;;;;;;13.35;9.82;;;19.00;99.90;;;;;;6306808;22;20057;-64
2023/06/01 05:41:19;;;;;;;14.60;9.68;;;19.10;99.90;;;;;;6306545;22;20003;-62
2023/06/01 05:43:45;;;;;;;14.07;10.18;;;19.10;99.90;;;;;;6306304;22;20003;-61
2023/06/01 05:46:10;;;;;;;17.08;10.48;;;19.10;99.90;;;;;;6306986;22;20079;-62
2023/06/01 05:48:36;;;;;;;12.68;9.75;;;19.10;99.90;;;;;;6306756;22;20007;-62
2023/06/01 05:51:02;;;;;;;13.45;9.68;;;19.10;99.90;;;;;;6306799;22;20042;-62
2023/06/01 05:53:28;;;;;;;11.88;9.48;;;19.10;99.90;;;;;;6306654;22;19999;-62
2023/06/01 05:55:54;;;;;;;16.15;10.40;;;19.10;99.90;;;;;;6306936;22;20341;-62
2023/06/01 05:58:19;;;;;;;15.02;9.50;;;19.10;99.90;;;;;;6306248;22;20002;-62
2023/06/01 06:00:46;;;;;;;12.93;9.55;;;19.10;99.90;;;;;;6306849;22;20315;-61
2023/06/01 06:03:12;;;;;;;14.80;9.73;;;19.10;99.90;;;;;;6306799;22;20341;-62
2023/06/01 06:05:37;;;;;;;13.52;9.55;;;19.10;99.90;;;;;;6306422;22;19999;-62
2023/06/01 06:08:03;;;;;;;15.75;10.05;;;19.10;99.90;;;;;;6306760;22;20038;-62
2023/06/01 06:10:29;;;;;;;16.10;10.20;;;19.10;99.90;;;;;;6306361;22;20006;-62
2023/06/01 06:12:55;;;;;;;17.20;9.88;;;19.20;99.90;;;;;;6278603;22;20003;-62
2023/06/01 06:15:21;;;;;;;15.57;10.20;;;19.20;99.90;;;;;;6306284;22;20090;-62
2023/06/01 06:17:46;;;;;;;14.50;9.65;;;19.20;99.90;;;;;;6306326;22;20076;-62
2023/06/01 06:20:12;;;;;;;16.63;9.57;;;19.20;99.90;;;;;;6305718;22;20489;-63
2023/06/01 06:22:38;;;;;;;14.55;9.20;;;19.20;99.90;;;;;;6306302;22;20010;-63
2023/06/01 06:25:05;;;;;;;13.48;9.18;;;19.30;99.90;;;;;;6306230;22;20066;-63
2023/06/01 06:27:30;;;;;;;18.80;9.70;;;19.30;99.90;;;;;;6305831;22;20057;-63
2023/06/01 06:29:56;;;;;;;16.10;10.18;;;19.30;99.90;;;;;;6306035;22;20007;-63
2023/06/01 06:32:22;;;;;;;17.30;9.70;;;19.40;99.90;;;;;;6306145;22;20096;-62
2023/06/01 06:34:48;;;;;;;14.52;9.30;;;19.40;99.90;;;;;;6306006;22;20007;-63
2023/06/01 06:37:13;;;;;;;15.18;9.20;;;19.40;99.90;;;;;;6305870;22;19999;-63
2023/06/01 06:39:39;;;;;;;16.15;9.65;;;19.40;99.90;;;;;;6306350;22;20030;-60
2023/06/01 06:42:05;;;;;;;12.95;9.27;;;19.50;99.90;;;;;;6305929;22;20501;-62
2023/06/01 06:44:31;;;;;;;12.93;9.10;;;19.50;99.90;;;;;;6306115;22;20023;-62
2023/06/01 06:47:02;;;;;;;16.67;9.18;;;19.50;99.90;;;;;;6306277;22;20010;-63
2023/06/01 06:49:28;;;;;;;13.68;9.13;;;19.60;99.90;;;;;;6278515;22;20333;-62
2023/06/01 06:51:54;;;;;;;12.88;8.63;;;19.60;99.90;;;;;;6306335;22;19999;-62
2023/06/01 06:54:19;;;;;;;12.52;9.25;;;19.60;99.90;;;;;;6305908;22;20493;-62
2023/06/01 06:56:45;;;;;;;14.93;9.57;;;19.60;99.90;;;;;;6278306;22;20437;-61
2023/06/01 06:59:11;;;;;;;12.45;9.23;;;19.60;99.90;;;;;;6305994;22;20386;-62
2023/06/01 07:01:37;;;;;;;14.60;9.50;;;19.70;99.90;;;;;;6305665;22;20054;-63
2023/06/01 07:04:06;;;;;;;13.65;9.13;;;19.70;99.90;;;;;;6306181;22;20061;-63
2023/06/01 07:06:32;;;;;;;14.20;9.55;;;19.70;99.90;;;;;;6305837;22;20011;-62
2023/06/01 07:08:58;;;;;;;13.15;9.48;;;19.70;99.90;;;;;;6306094;22;20014;-62
2023/06/01 07:11:26;;;;;;;14.57;9.40;;;19.70;99.90;;;;;;6305535;22;20672;-60
2023/06/01 07:13:52;;;;;;;16.95;9.65;;;19.70;99.90;;;;;;6306268;22;20022;-61
2023/06/01 07:16:18;;;;;;;15.02;9.32;;;19.80;99.90;;;;;;6305723;22;20011;-62
2023/06/01 07:18:44;;;;;;;14.80;10.10;;;19.80;99.90;;;;;;6306204;22;20109;-62
2023/06/01 07:21:10;;;;;;;14.73;9.82;;;19.80;99.90;;;;;;6305852;22;20394;-62
2023/06/01 07:23:35;;;;;;;16.83;9.98;;;19.90;99.90;;;;;;6305702;22;20436;-62
2023/06/01 07:26:01;;;;;;;13.75;9.65;;;19.90;99.90;;;;;;6305170;22;20003;-62
2023/06/01 07:28:28;;;;;;;13.02;9.77;;;19.90;99.90;;;;;;6305669;22;20003;-62
2023/06/01 07:30:53;;;;;;;15.88;9.88;;;19.90;99.90;;;;;;6305393;22;20019;-62
2023/06/01 07:33:20;;;;;;;15.00;10.30;;;19.90;99.90;;;;;;6305713;22;19995;-61
2023/06/01 07:35:45;;;;;;;18.70;10.07;;;19.90;99.90;;;;;;6305603;22;20015;-62
2023/06/01 07:38:11;;;;;;;16.33;10.10;;;20.00;99.90;;;;;;6305907;22;20586;-62
2023/06/01 07:40:38;;;;;;;18.45;9.65;;;20.10;99.90;;;;;;6305559;22;20007;-62
2023/06/01 07:43:03;;;;;;;16.63;9.88;;;20.20;99.90;;;;;;6304810;22;20048;-60
2023/06/01 07:45:29;;;;;;;16.55;10.50;;;20.20;99.90;;;;;;6305721;22;20029;-62
2023/06/01 07:47:55;;;;;;;18.20;9.90;;;20.30;99.90;;;;;;6304834;22;20004;-63
2023/06/01 07:50:23;;;;;;;17.23;9.88;;;20.50;99.90;;;;;;6305209;22;19995;-62
2023/06/01 07:52:50;;;;;;;17.02;9.90;;;20.50;99.90;;;;;;6305487;22;20064;-62
2023/06/01 07:55:16;;;;;;;19.65;10.40;;;20.50;99.90;;;;;;6304994;22;20032;-63
2023/06/01 07:57:41;;;;;;;16.50;10.27;;;20.50;99.90;;;;;;6305060;22;20003;-62
2023/06/01 08:00:11;;;;;;;12.60;8.85;;;20.50;99.90;;;;;;6305172;22;20003;-63
2023/06/01 08:02:37;;;;;;;14.35;8.93;;;20.60;99.90;;;;;;6305255;22;20007;-62
2023/06/01 08:05:02;;;;;;;19.63;9.63;;;20.60;99.90;;;;;;6304273;22;20494;-62
2023/06/01 08:07:29;;;;;;;16.13;9.65;;;20.60;99.90;;;;;;6305399;22;20007;-62
2023/06/01 08:09:57;;;;;;;13.95;9.23;;;20.70;99.90;;;;;;6304957;22;20066;-61
2023/06/01 08:12:23;;;;;;;16.50;9.35;;;20.70;99.90;;;;;;6304981;22;20010;-62
2023/06/01 08:14:49;;;;;;;16.65;9.52;;;20.70;99.90;;;;;;6305050;22;20493;-60
2023/06/01 08:17:15;;;;;;;12.95;8.90;;;20.70;99.90;;;;;;6305669;22;20007;-61
2023/06/01 08:19:42;;;;;;;14.30;8.90;;;20.80;99.90;;;;;;6304939;22;20007;-62
2023/06/01 08:22:07;;;;;;;16.90;9.18;;;21.00;99.90;;;;;;6304947;22;20003;-61
2023/06/01 08:24:34;;;;;;;16.25;9.65;;;20.90;99.90;;;;;;6304683;22;20002;-62
2023/06/01 08:27:00;;;;;;;15.85;9.27;;;20.90;99.90;;;;;;6304900;22;20465;-62
2023/06/01 08:29:26;;;;;;;14.00;9.13;;;20.90;99.90;;;;;;6304987;22;20031;-62
2023/06/01 08:31:52;;;;;;;11.38;8.40;;;20.90;99.90;;;;;;6305347;22;20011;-62
2023/06/01 08:34:19;;;;;;;14.93;9.05;;;21.00;99.90;;;;;;6305189;22;20391;-61
2023/06/01 08:36:45;;;;;;;15.05;9.13;;;21.00;99.90;;;;;;6305126;22;20011;-60
2023/06/01 08:39:23;;;;;;;13.57;8.63;;;21.00;99.90;;;;;;6304538;22;20006;-61
2023/06/01 08:42:08;;;;;;;13.70;9.13;;;21.00;99.90;;;;;;6277799;22;20007;-60
2023/06/01 08:44:39;;;;;;;14.40;8.93;;;21.10;99.90;;;;;;6307062;22;20003;-61
2023/06/01 08:47:05;;;;;;;12.95;8.80;;;21.10;99.90;;;;;;6279358;22;20006;-62
2023/06/01 08:49:33;;;;;;;13.90;8.65;;;21.10;99.90;;;;;;6306803;22;20027;-62
2023/06/01 08:52:06;;;;;;;12.93;8.90;;;21.20;99.90;;;;;;6306679;22;20010;-62
2023/06/01 08:54:32;;;;;;;;;;;21.30;99.90;;;;;;6307003;22;20086;-62
2023/06/01 08:57:04;;;;;;;11.60;8.82;;;21.30;99.90;;;;;;6306810;22;20308;-62
2023/06/01 08:59:31;;;;;;;13.13;9.15;;;21.40;99.90;;;;;;6306957;22;20066;-61
2023/06/01 09:01:58;;;;;;;13.95;8.82;;;21.50;99.90;;;;;;6306964;22;20009;-62
2023/06/01 09:04:23;;;;;;;14.55;8.88;;;21.60;99.90;;;;;;6306699;22;20341;-62
2023/06/01 09:06:49;;;;;;;14.75;8.70;;;21.70;99.90;;;;;;6305984;22;20030;-62
2023/06/01 09:09:15;;;;;;;12.93;8.55;;;21.60;99.90;;;;;;6306794;22;19999;-62
2023/06/01 09:11:41;;;;;;;10.55;8.43;;;21.60;99.90;;;;;;6306842;22;20010;-61
2023/06/01 09:14:23;;;;;;;14.20;8.88;;;21.60;99.90;;;;;;6306319;22;20430;-62
2023/06/01 09:16:49;;;;;;;19.40;8.95;;;21.70;99.90;;;;;;6306796;22;20443;-64
2023/06/01 09:19:15;;;;;;;14.68;9.13;;;21.90;99.90;;;;;;6306295;22;20068;-63
2023/06/01 09:22:01;;;;;;;13.40;8.82;;;21.90;99.90;;;;;;6306827;22;20007;-62
2023/06/01 09:24:27;;;;;;;14.35;8.70;;;21.80;99.90;;;;;;6306048;22;20007;-63
2023/06/01 09:27:00;;;;;;;14.45;8.70;;;21.90;99.90;;;;;;6306641;22;20076;-63
2023/06/01 09:29:26;;;;;;;13.13;8.37;;;21.90;99.90;;;;;;6306637;22;20003;-62
2023/06/01 09:31:52;;;;;;;13.18;8.68;;;21.90;99.90;;;;;;6306047;22;20103;-62
2023/06/01 09:34:20;;;;;;;16.40;8.90;;;21.90;99.90;;;;;;6306290;22;20428;-64
2023/06/01 09:36:47;;;;;;;12.38;8.38;;;21.90;99.90;;;;;;6305880;22;20011;-62
2023/06/01 09:39:15;;;;;;;14.55;7.88;;;21.90;99.90;;;;;;6306516;22;20010;-63
2023/06/01 09:41:59;;;;;;;13.27;8.43;;;21.90;99.90;;;;;;6306433;22;20007;-63
2023/06/01 09:44:36;;;;;;;11.38;8.13;;;22.00;99.90;;;;;;6306168;22;20019;-62
2023/06/01 09:47:09;;;;;;;14.77;8.50;;;22.00;99.90;;;;;;6305753;22;20003;-64
2023/06/01 09:49:37;;;;;;;10.32;8.00;;;22.10;99.90;;;;;;6306176;22;20007;-62
2023/06/01 09:52:06;;;;;;;12.90;8.45;;;22.10;99.90;;;;;;6305514;22;19999;-61
2023/06/01 09:54:34;;;;;;;12.48;8.23;;;22.10;99.90;;;;;;6306159;22;20039;-62
2023/06/01 09:57:01;;;;;;;10.80;8.25;;;22.10;99.90;;;;;;6306462;22;20341;-62
2023/06/01 09:59:28;;;;;;;10.00;7.75;;;22.20;99.90;;;;;;6278189;22;20012;-63
2023/06/01 10:01:58;;;;;;;16.35;8.27;;;22.20;99.90;;;;;;6305823;22;20007;-61
2023/06/01 10:04:29;;;;;;;11.18;7.78;;;22.30;99.90;;;;;;6305555;22;20053;-64
2023/06/01 10:06:57;;;;;;;12.43;7.82;;;22.40;99.90;;;;;;6306499;22;20082;-61
2023/06/01 10:09:26;;;;;;;10.85;7.72;;;22.50;99.90;;;;;;6305788;22;20080;-62
2023/06/01 10:11:55;;;;;;;13.45;7.47;;;22.50;99.90;;;;;;6305666;22;20445;-63
2023/06/01 10:14:25;;;;;;;10.05;7.10;;;22.50;99.90;;;;;;6305620;22;20003;-63
2023/06/01 10:16:52;;;;;;;13.10;8.25;;;22.40;99.90;;;;;;6305531;22;20075;-61
2023/06/01 10:19:19;;;;;;;12.93;7.97;;;22.60;99.90;;;;;;6305753;22;20003;-63
2023/06/01 10:21:46;;;;;;;11.73;7.22;;;22.90;99.90;;;;;;6305701;22;20078;-62
2023/06/01 10:24:14;;;;;;;9.68;6.80;;;23.00;99.90;;;;;;6305972;22;20007;-63
2023/06/01 10:27:11;;;;;;;9.98;7.18;;;22.90;99.90;;;;;;6304869;22;20006;-62
2023/06/01 10:29:38;;;;;;;9.70;6.72;;;23.00;99.90;;;;;;6304799;22;19999;-62
2023/06/01 10:32:04;;;;;;;13.77;7.22;;;23.10;99.90;;;;;;6305332;22;20019;-62
2023/06/01 10:34:42;;;;;;;8.57;6.68;;;23.00;99.90;;;;;;6304511;22;20003;-61
2023/06/01 10:37:08;;;;;;;9.32;6.40;;;23.00;99.90;;;;;;6305876;22;20400;-61
2023/06/01 10:39:34;;;;;;;9.43;6.70;;;23.00;99.90;;;;;;6305256;22;20033;-61
2023/06/01 10:42:12;;;;;;;10.45;6.65;;;23.10;99.90;;;;;;6305350;22;20007;-62
2023/06/01 10:44:40;;;;;;;9.65;6.72;;;23.10;99.90;;;;;;6306147;22;20007;-63
2023/06/01 10:47:06;;;;;;;11.02;6.13;;;23.30;99.90;;;;;;6305577;22;20080;-62
2023/06/01 10:49:47;;;;;;;11.13;6.07;;;23.40;99.90;;;;;;6305092;22;20501;-60
2023/06/01 10:52:35;;;;;;;9.65;6.40;;;23.60;99.90;;;;;;6305655;22;20337;-61
2023/06/01 10:55:26;;;;;;;8.43;6.30;;;23.70;99.90;;;;;;6305308;22;20019;-62
2023/06/01 10:58:11;;;;;;;9.85;6.40;;;23.90;99.90;;;;;;6305274;22;20014;-62
2023/06/01 11:00:40;;;;;;;8.27;6.05;;;24.00;99.90;;;;;;6305042;22;20004;-61
2023/06/01 11:03:06;;;;;;;8.43;6.18;;;24.00;99.90;;;;;;6305255;22;20453;-61
2023/06/01 11:05:48;;;;;;;7.82;5.88;;;24.00;99.90;;;;;;6305469;22;20007;-62
2023/06/01 11:08:22;;;;;;;7.95;6.00;;;23.90;99.90;;;;;;6305209;22;20026;-62
2023/06/01 11:10:58;;;;;;;8.93;5.78;;;23.80;99.90;;;;;;6305319;22;20027;-62
2023/06/01 11:13:27;;;;;;;12.27;5.65;;;24.00;99.90;;;;;;6305311;22;20056;-62
2023/06/01 11:16:09;;;;;;;10.07;6.47;;;24.20;99.90;;;;;;6305045;22;20015;-62
2023/06/01 11:18:41;;;;;;;8.65;6.00;;;24.10;99.90;;;;;;6305141;22;20433;-60
2023/06/01 11:21:15;;;;;;;10.60;6.40;;;24.10;99.90;;;;;;6305311;22;20078;-62
2023/06/01 11:23:41;;;;;;;7.63;6.28;;;24.30;99.90;;;;;;6304969;22;19999;-62
2023/06/01 11:26:07;;;;;;;9.60;6.18;;;24.30;99.90;;;;;;6305164;22;20007;-61
2023/06/01 11:28:33;;;;;;;7.65;5.57;;;24.30;99.90;;;;;;6305356;22;20000;-62
2023/06/01 11:31:03;;;;;;;8.27;5.82;;;24.30;99.90;;;;;;6304761;22;20023;-60
2023/06/01 11:33:29;;;;;;;9.52;5.97;;;24.40;99.90;;;;;;6304794;22;20006;-62
2023/06/01 11:35:59;;;;;;;6.95;5.70;;;24.50;99.90;;;;;;6305461;22;20011;-62
2023/06/01 11:38:39;;;;;;;8.20;5.88;;;24.50;99.90;;;;;;6305589;22;20448;-60
2023/06/01 11:41:06;;;;;;;10.23;6.40;;;24.30;99.90;;;;;;6305164;22;20336;-62
2023/06/01 11:43:32;;;;;;;10.00;5.82;;;24.10;99.90;;;;;;6305149;22;20074;-62
2023/06/01 11:46:02;;;;;;;7.80;6.15;;;24.00;99.90;;;;;;6304833;22;19999;-62
2023/06/01 11:48:29;;;;;;;8.75;6.00;;;23.90;99.90;;;;;;6305435;22;20007;-62
2023/06/01 11:50:55;;;;;;;6.30;5.35;;;23.80;99.90;;;;;;6305016;22;20010;-62
2023/06/01 11:53:21;;;;;;;7.13;5.72;;;23.80;99.90;;;;;;6305109;22;20541;-62
2023/06/01 11:55:55;;;;;;;8.30;6.03;;;23.80;99.90;;;;;;6305284;22;20118;-63
2023/06/01 11:58:28;;;;;;;10.52;6.20;;;23.80;99.90;;;;;;6305236;22;20003;-63
2023/06/01 12:00:56;;;;;;;9.90;6.70;;;23.70;99.90;;;;;;6305400;22;20338;-63
2023/06/01 12:03:24;;;;;;;10.18;6.88;;;23.70;99.90;;;;;;6305486;22;20012;-64
2023/06/01 12:05:50;;;;;;;10.23;6.75;;;23.60;99.90;;;;;;6305272;22;20026;-63
2023/06/01 12:08:21;;;;;;;8.95;6.85;;;23.40;99.90;;;;;;6304912;22;19996;-62
2023/06/01 12:10:48;;;;;;;9.80;7.50;;;23.30;99.90;;;;;;6305351;22;20011;-63
2023/06/01 12:13:15;;;;;;;8.45;7.30;;;23.30;99.90;;;;;;6305792;22;20065;-64
2023/06/01 12:15:41;;;;;;;7.97;7.18;;;23.20;99.90;;;;;;6277254;22;20090;-63
2023/06/01 12:18:08;;;;;;;7.97;7.18;;;23.10;99.90;;;;;;6306002;22;20006;-63
2023/06/01 12:20:42;;;;;;;9.98;7.90;;;23.10;99.90;;;;;;6307420;22;20462;-64
2023/06/01 12:23:13;;;;;;;9.32;7.35;;;23.00;99.90;;;;;;6306951;22;20441;-64
2023/06/01 12:25:53;;;;;;;10.35;7.70;;;23.00;99.90;;;;;;6307349;22;20030;-63
2023/06/01 12:28:20;;;;;;;8.88;7.05;;;23.00;99.90;;;;;;6307285;22;20015;-64
2023/06/01 12:30:46;;;;;;;9.48;7.50;;;22.90;99.90;;;;;;6306419;22;20480;-62
2023/06/01 12:33:33;;;;;;;10.07;8.15;;;22.90;99.90;;;;;;6306706;22;20026;-63
2023/06/01 12:35:59;;;;;;;24.48;10.27;;;23.10;99.90;;;;;;6307088;22;20388;-64
2023/06/01 12:38:25;;;;;;;14.35;8.15;;;23.30;99.90;;;;;;6306728;22;20078;-63
2023/06/01 12:41:11;;;;;;;10.23;7.28;;;23.40;99.90;;;;;;6306847;22;20026;-64